sensor_id;sensor_type;location;lat;lon;timestamp;P1;durP1;ratioP1;P2;durP2;ratioP2
18042;SDS011;9146;48.074;11.968;2022-09-13T00:01:44;9.00;;;8.10;;
18042;SDS011;9146;48.074;11.968;2022-09-13T00:04:13;9.63;;;8.13;;
18042;SDS011;9146;48.074;11.968;2022-09-13T00:06:40;9.70;;;8.77;;
18042;SDS011;9146;48.074;11.968;2022-09-13T00:09:07;10.97;;;9.10;;
18042;SDS011;9146;48.074;11.968;2022-09-13T00:11:34;11.73;;;8.93;;
18042;SDS011;9146;48.074;11.968;2022-09-13T00:14:01;11.30;;;8.03;;
18042;SDS011;9146;48.074;11.968;2022-09-13T00:16:28;11.00;;;8.77;;
18042;SDS011;9146;48.074;11.968;2022-09-13T00:18:56;8.20;;;7.40;;
18042;SDS011;9146;48.074;11.968;2022-09-13T00:21:26;10.27;;;8.43;;
18042;SDS011;9146;48.074;11.968;2022-09-13T00:23:53;10.60;;;9.23;;
18042;SDS011;9146;48.074;11.968;2022-09-13T00:26:21;9.50;;;8.20;;
18042;SDS011;9146;48.074;11.968;2022-09-13T00:28:49;10.30;;;8.97;;
18042;SDS011;9146;48.074;11.968;2022-09-13T00:31:16;11.88;;;9.77;;
18042;SDS011;9146;48.074;11.968;2022-09-13T00:33:44;12.03;;;9.43;;
18042;SDS011;9146;48.074;11.968;2022-09-13T00:36:11;11.70;;;9.30;;
18042;SDS011;9146;48.074;11.968;2022-09-13T00:38:41;9.70;;;8.40;;
18042;SDS011;9146;48.074;11.968;2022-09-13T00:41:09;8.83;;;7.53;;
18042;SDS011;9146;48.074;11.968;2022-09-13T00:43:45;11.67;;;8.80;;
18042;SDS011;9146;48.074;11.968;2022-09-13T00:46:15;9.90;;;7.70;;
18042;SDS011;9146;48.074;11.968;2022-09-13T00:48:50;10.13;;;8.13;;
18042;SDS011;9146;48.074;11.968;2022-09-13T00:51:22;11.60;;;7.60;;
18042;SDS011;9146;48.074;11.968;2022-09-13T00:53:51;8.57;;;7.50;;
18042;SDS011;9146;48.074;11.968;2022-09-13T00:56:21;14.73;;;8.20;;
18042;SDS011;9146;48.074;11.968;2022-09-13T00:58:55;9.10;;;7.93;;
18042;SDS011;9146;48.074;11.968;2022-09-13T01:01:27;9.60;;;8.47;;
18042;SDS011;9146;48.074;11.968;2022-09-13T01:03:58;13.00;;;10.03;;
18042;SDS011;9146;48.074;11.968;2022-09-13T01:06:27;12.50;;;9.07;;
18042;SDS011;9146;48.074;11.968;2022-09-13T01:09:00;11.53;;;9.40;;
18042;SDS011;9146;48.074;11.968;2022-09-13T01:11:29;12.57;;;9.63;;
18042;SDS011;9146;48.074;11.968;2022-09-13T01:14:03;10.50;;;8.40;;
18042;SDS011;9146;48.074;11.968;2022-09-13T01:16:32;14.73;;;10.67;;
18042;SDS011;9146;48.074;11.968;2022-09-13T01:18:58;11.97;;;9.50;;
18042;SDS011;9146;48.074;11.968;2022-09-13T01:24:39;11.70;;;9.10;;
18042;SDS011;9146;48.074;11.968;2022-09-13T01:27:40;10.67;;;8.30;;
18042;SDS011;9146;48.074;11.968;2022-09-13T01:30:20;9.90;;;8.40;;
18042;SDS011;9146;48.074;11.968;2022-09-13T01:36:07;12.53;;;9.30;;
18042;SDS011;9146;48.074;11.968;2022-09-13T01:38:51;9.43;;;8.27;;
18042;SDS011;9146;48.074;11.968;2022-09-13T01:41:27;10.30;;;7.87;;
18042;SDS011;9146;48.074;11.968;2022-09-13T01:44:28;12.07;;;8.97;;
18042;SDS011;9146;48.074;11.968;2022-09-13T01:47:20;12.27;;;10.00;;
18042;SDS011;9146;48.074;11.968;2022-09-13T01:49:55;14.23;;;10.30;;
18042;SDS011;9146;48.074;11.968;2022-09-13T01:52:35;12.57;;;9.80;;
18042;SDS011;9146;48.074;11.968;2022-09-13T01:55:07;10.20;;;9.20;;
18042;SDS011;9146;48.074;11.968;2022-09-13T01:57:40;10.63;;;8.30;;
18042;SDS011;9146;48.074;11.968;2022-09-13T02:00:14;11.20;;;9.13;;
18042;SDS011;9146;48.074;11.968;2022-09-13T02:02:45;11.83;;;9.47;;
18042;SDS011;9146;48.074;11.968;2022-09-13T02:05:16;12.40;;;9.40;;
18042;SDS011;9146;48.074;11.968;2022-09-13T02:07:49;11.70;;;9.90;;
18042;SDS011;9146;48.074;11.968;2022-09-13T02:10:24;13.80;;;8.97;;
18042;SDS011;9146;48.074;11.968;2022-09-13T02:12:55;9.70;;;8.53;;
18042;SDS011;9146;48.074;11.968;2022-09-13T02:15:24;11.07;;;9.10;;
18042;SDS011;9146;48.074;11.968;2022-09-13T02:18:00;15.70;;;10.70;;
18042;SDS011;9146;48.074;11.968;2022-09-13T02:20:32;17.53;;;13.20;;
18042;SDS011;9146;48.074;11.968;2022-09-13T02:23:02;16.73;;;13.50;;
18042;SDS011;9146;48.074;11.968;2022-09-13T02:25:34;17.10;;;12.43;;
18042;SDS011;9146;48.074;11.968;2022-09-13T02:28:04;17.43;;;12.10;;
18042;SDS011;9146;48.074;11.968;2022-09-13T02:30:36;16.30;;;11.40;;
18042;SDS011;9146;48.074;11.968;2022-09-13T02:33:09;14.17;;;11.00;;
18042;SDS011;9146;48.074;11.968;2022-09-13T02:35:39;13.27;;;10.77;;
18042;SDS011;9146;48.074;11.968;2022-09-13T02:38:12;15.70;;;11.73;;
18042;SDS011;9146;48.074;11.968;2022-09-13T02:40:47;16.70;;;10.33;;
18042;SDS011;9146;48.074;11.968;2022-09-13T02:43:21;12.40;;;9.83;;
18042;SDS011;9146;48.074;11.968;2022-09-13T02:45:55;10.00;;;8.23;;
18042;SDS011;9146;48.074;11.968;2022-09-13T02:48:38;11.53;;;9.50;;
18042;SDS011;9146;48.074;11.968;2022-09-13T02:51:15;12.83;;;9.13;;
18042;SDS011;9146;48.074;11.968;2022-09-13T02:53:49;11.67;;;9.07;;
18042;SDS011;9146;48.074;11.968;2022-09-13T02:56:23;15.90;;;11.20;;
18042;SDS011;9146;48.074;11.968;2022-09-13T02:59:00;14.20;;;11.27;;
18042;SDS011;9146;48.074;11.968;2022-09-13T03:01:31;14.67;;;10.50;;
18042;SDS011;9146;48.074;11.968;2022-09-13T03:04:01;12.00;;;10.33;;
18042;SDS011;9146;48.074;11.968;2022-09-13T03:06:28;12.23;;;10.33;;
18042;SDS011;9146;48.074;11.968;2022-09-13T03:08:57;11.80;;;9.10;;
18042;SDS011;9146;48.074;11.968;2022-09-13T03:11:28;12.77;;;9.50;;
18042;SDS011;9146;48.074;11.968;2022-09-13T03:14:11;12.17;;;10.27;;
18042;SDS011;9146;48.074;11.968;2022-09-13T03:16:51;9.23;;;8.20;;
18042;SDS011;9146;48.074;11.968;2022-09-13T03:19:35;10.70;;;9.10;;
18042;SDS011;9146;48.074;11.968;2022-09-13T03:22:15;11.20;;;9.20;;
18042;SDS011;9146;48.074;11.968;2022-09-13T03:24:56;14.33;;;11.23;;
18042;SDS011;9146;48.074;11.968;2022-09-13T03:27:33;10.97;;;8.97;;
18042;SDS011;9146;48.074;11.968;2022-09-13T03:30:03;11.70;;;9.30;;
18042;SDS011;9146;48.074;11.968;2022-09-13T03:32:34;11.60;;;9.00;;
18042;SDS011;9146;48.074;11.968;2022-09-13T03:35:08;12.10;;;9.23;;
18042;SDS011;9146;48.074;11.968;2022-09-13T03:37:43;13.93;;;9.50;;
18042;SDS011;9146;48.074;11.968;2022-09-13T03:40:19;14.50;;;10.97;;
18042;SDS011;9146;48.074;11.968;2022-09-13T03:42:51;16.90;;;11.50;;
18042;SDS011;9146;48.074;11.968;2022-09-13T03:45:26;14.57;;;10.90;;
18042;SDS011;9146;48.074;11.968;2022-09-13T03:47:56;15.13;;;10.50;;
18042;SDS011;9146;48.074;11.968;2022-09-13T03:50:25;14.80;;;10.80;;
18042;SDS011;9146;48.074;11.968;2022-09-13T03:52:53;13.50;;;9.80;;
18042;SDS011;9146;48.074;11.968;2022-09-13T03:55:25;14.90;;;10.13;;
18042;SDS011;9146;48.074;11.968;2022-09-13T03:57:53;11.90;;;9.13;;
18042;SDS011;9146;48.074;11.968;2022-09-13T04:00:21;14.50;;;9.60;;
18042;SDS011;9146;48.074;11.968;2022-09-13T04:02:48;11.63;;;9.07;;
18042;SDS011;9146;48.074;11.968;2022-09-13T04:05:15;12.30;;;9.20;;
18042;SDS011;9146;48.074;11.968;2022-09-13T04:07:43;12.20;;;9.37;;
18042;SDS011;9146;48.074;11.968;2022-09-13T04:10:10;15.77;;;11.30;;
18042;SDS011;9146;48.074;11.968;2022-09-13T04:12:37;13.73;;;10.83;;
18042;SDS011;9146;48.074;11.968;2022-09-13T04:15:05;17.20;;;11.37;;
18042;SDS011;9146;48.074;11.968;2022-09-13T04:17:34;18.83;;;12.17;;
18042;SDS011;9146;48.074;11.968;2022-09-13T04:20:01;16.30;;;10.77;;
18042;SDS011;9146;48.074;11.968;2022-09-13T04:22:29;13.73;;;10.30;;
18042;SDS011;9146;48.074;11.968;2022-09-13T04:24:59;13.80;;;10.80;;
18042;SDS011;9146;48.074;11.968;2022-09-13T04:27:26;12.90;;;10.60;;
18042;SDS011;9146;48.074;11.968;2022-09-13T04:29:53;12.70;;;9.40;;
18042;SDS011;9146;48.074;11.968;2022-09-13T04:32:19;13.90;;;10.77;;
18042;SDS011;9146;48.074;11.968;2022-09-13T04:34:46;14.43;;;11.90;;
18042;SDS011;9146;48.074;11.968;2022-09-13T04:37:13;17.00;;;11.33;;
18042;SDS011;9146;48.074;11.968;2022-09-13T04:39:40;17.37;;;11.03;;
18042;SDS011;9146;48.074;11.968;2022-09-13T04:42:09;16.07;;;12.83;;
18042;SDS011;9146;48.074;11.968;2022-09-13T04:44:36;17.70;;;12.77;;
18042;SDS011;9146;48.074;11.968;2022-09-13T04:47:03;16.07;;;11.57;;
18042;SDS011;9146;48.074;11.968;2022-09-13T04:49:32;16.13;;;10.47;;
18042;SDS011;9146;48.074;11.968;2022-09-13T04:51:59;15.83;;;11.33;;
18042;SDS011;9146;48.074;11.968;2022-09-13T04:54:26;19.27;;;12.87;;
18042;SDS011;9146;48.074;11.968;2022-09-13T04:56:53;15.63;;;11.77;;
18042;SDS011;9146;48.074;11.968;2022-09-13T04:59:21;13.43;;;10.43;;
18042;SDS011;9146;48.074;11.968;2022-09-13T05:01:48;14.27;;;10.83;;
18042;SDS011;9146;48.074;11.968;2022-09-13T05:04:15;12.97;;;10.43;;
18042;SDS011;9146;48.074;11.968;2022-09-13T05:06:42;14.37;;;9.87;;
18042;SDS011;9146;48.074;11.968;2022-09-13T05:09:09;17.27;;;11.00;;
18042;SDS011;9146;48.074;11.968;2022-09-13T05:11:38;16.90;;;11.50;;
18042;SDS011;9146;48.074;11.968;2022-09-13T05:14:08;18.10;;;12.00;;
18042;SDS011;9146;48.074;11.968;2022-09-13T05:16:37;17.20;;;12.40;;
18042;SDS011;9146;48.074;11.968;2022-09-13T05:19:04;15.77;;;12.03;;
18042;SDS011;9146;48.074;11.968;2022-09-13T05:21:31;18.13;;;11.90;;
18042;SDS011;9146;48.074;11.968;2022-09-13T05:23:58;19.93;;;12.57;;
18042;SDS011;9146;48.074;11.968;2022-09-13T05:26:26;19.47;;;12.43;;
18042;SDS011;9146;48.074;11.968;2022-09-13T05:28:56;19.57;;;10.67;;
18042;SDS011;9146;48.074;11.968;2022-09-13T05:31:23;17.10;;;11.50;;
18042;SDS011;9146;48.074;11.968;2022-09-13T05:33:54;17.13;;;11.53;;
18042;SDS011;9146;48.074;11.968;2022-09-13T05:36:23;18.43;;;14.07;;
18042;SDS011;9146;48.074;11.968;2022-09-13T05:38:50;16.60;;;12.33;;
18042;SDS011;9146;48.074;11.968;2022-09-13T05:41:17;17.50;;;11.10;;
18042;SDS011;9146;48.074;11.968;2022-09-13T05:43:44;16.60;;;12.23;;
18042;SDS011;9146;48.074;11.968;2022-09-13T05:46:12;14.20;;;10.80;;
18042;SDS011;9146;48.074;11.968;2022-09-13T05:48:40;14.83;;;11.50;;
18042;SDS011;9146;48.074;11.968;2022-09-13T05:51:09;13.40;;;9.97;;
18042;SDS011;9146;48.074;11.968;2022-09-13T05:53:38;14.20;;;9.93;;
18042;SDS011;9146;48.074;11.968;2022-09-13T05:56:06;11.73;;;9.80;;
18042;SDS011;9146;48.074;11.968;2022-09-13T05:58:33;13.43;;;8.60;;
18042;SDS011;9146;48.074;11.968;2022-09-13T06:01:03;11.67;;;9.53;;
18042;SDS011;9146;48.074;11.968;2022-09-13T06:03:30;10.60;;;8.73;;
18042;SDS011;9146;48.074;11.968;2022-09-13T06:05:57;9.83;;;7.40;;
18042;SDS011;9146;48.074;11.968;2022-09-13T06:08:26;9.23;;;7.97;;
18042;SDS011;9146;48.074;11.968;2022-09-13T06:10:57;11.97;;;8.53;;
18042;SDS011;9146;48.074;11.968;2022-09-13T06:13:25;13.87;;;10.47;;
18042;SDS011;9146;48.074;11.968;2022-09-13T06:15:53;12.37;;;10.00;;
18042;SDS011;9146;48.074;11.968;2022-09-13T06:18:21;12.53;;;8.13;;
18042;SDS011;9146;48.074;11.968;2022-09-13T06:20:50;8.50;;;7.20;;
18042;SDS011;9146;48.074;11.968;2022-09-13T06:23:22;7.67;;;6.87;;
18042;SDS011;9146;48.074;11.968;2022-09-13T06:25:50;5.67;;;5.20;;
18042;SDS011;9146;48.074;11.968;2022-09-13T06:28:25;6.00;;;5.07;;
18042;SDS011;9146;48.074;11.968;2022-09-13T06:30:52;6.03;;;5.37;;
18042;SDS011;9146;48.074;11.968;2022-09-13T06:33:25;5.50;;;4.90;;
18042;SDS011;9146;48.074;11.968;2022-09-13T06:35:52;6.93;;;6.23;;
18042;SDS011;9146;48.074;11.968;2022-09-13T06:38:18;6.00;;;5.40;;
18042;SDS011;9146;48.074;11.968;2022-09-13T06:40:45;5.33;;;4.40;;
18042;SDS011;9146;48.074;11.968;2022-09-13T06:43:14;3.83;;;3.53;;
18042;SDS011;9146;48.074;11.968;2022-09-13T06:45:41;5.50;;;4.47;;
18042;SDS011;9146;48.074;11.968;2022-09-13T06:48:07;4.53;;;4.13;;
18042;SDS011;9146;48.074;11.968;2022-09-13T06:50:34;4.37;;;3.97;;
18042;SDS011;9146;48.074;11.968;2022-09-13T06:53:01;3.83;;;3.57;;
18042;SDS011;9146;48.074;11.968;2022-09-13T06:55:28;5.30;;;4.17;;
18042;SDS011;9146;48.074;11.968;2022-09-13T06:57:55;3.73;;;3.43;;
18042;SDS011;9146;48.074;11.968;2022-09-13T07:00:24;3.93;;;3.63;;
18042;SDS011;9146;48.074;11.968;2022-09-13T07:02:51;7.03;;;3.60;;
18042;SDS011;9146;48.074;11.968;2022-09-13T07:05:19;3.83;;;3.53;;
18042;SDS011;9146;48.074;11.968;2022-09-13T07:07:46;3.83;;;3.53;;
18042;SDS011;9146;48.074;11.968;2022-09-13T07:10:13;4.40;;;3.40;;
18042;SDS011;9146;48.074;11.968;2022-09-13T07:12:40;3.27;;;3.07;;
18042;SDS011;9146;48.074;11.968;2022-09-13T07:15:07;3.23;;;2.93;;
18042;SDS011;9146;48.074;11.968;2022-09-13T07:17:36;3.17;;;2.97;;
18042;SDS011;9146;48.074;11.968;2022-09-13T07:20:03;3.90;;;2.77;;
18042;SDS011;9146;48.074;11.968;2022-09-13T07:22:32;2.60;;;2.40;;
18042;SDS011;9146;48.074;11.968;2022-09-13T07:24:59;2.97;;;2.70;;
18042;SDS011;9146;48.074;11.968;2022-09-13T07:27:26;3.07;;;2.87;;
18042;SDS011;9146;48.074;11.968;2022-09-13T07:29:53;3.40;;;3.20;;
18042;SDS011;9146;48.074;11.968;2022-09-13T07:32:20;4.30;;;2.80;;
18042;SDS011;9146;48.074;11.968;2022-09-13T07:34:48;4.10;;;3.80;;
18042;SDS011;9146;48.074;11.968;2022-09-13T07:37:15;5.50;;;3.40;;
18042;SDS011;9146;48.074;11.968;2022-09-13T07:39:42;3.53;;;3.23;;
18042;SDS011;9146;48.074;11.968;2022-09-13T07:42:09;3.83;;;3.17;;
18042;SDS011;9146;48.074;11.968;2022-09-13T07:44:36;3.60;;;3.30;;
18042;SDS011;9146;48.074;11.968;2022-09-13T07:47:03;2.23;;;2.13;;
18042;SDS011;9146;48.074;11.968;2022-09-13T07:49:30;2.40;;;2.30;;
18042;SDS011;9146;48.074;11.968;2022-09-13T07:51:58;2.20;;;2.10;;
18042;SDS011;9146;48.074;11.968;2022-09-13T07:54:25;2.70;;;2.50;;
18042;SDS011;9146;48.074;11.968;2022-09-13T07:56:52;4.00;;;2.90;;
18042;SDS011;9146;48.074;11.968;2022-09-13T07:59:19;2.37;;;2.20;;
18042;SDS011;9146;48.074;11.968;2022-09-13T08:01:46;2.50;;;2.30;;
18042;SDS011;9146;48.074;11.968;2022-09-13T08:04:16;2.80;;;2.60;;
18042;SDS011;9146;48.074;11.968;2022-09-13T08:06:44;2.30;;;2.20;;
18042;SDS011;9146;48.074;11.968;2022-09-13T08:09:13;2.73;;;2.07;;
18042;SDS011;9146;48.074;11.968;2022-09-13T08:11:41;1.97;;;1.87;;
18042;SDS011;9146;48.074;11.968;2022-09-13T08:14:10;3.10;;;2.87;;
18042;SDS011;9146;48.074;11.968;2022-09-13T08:16:38;2.20;;;2.10;;
18042;SDS011;9146;48.074;11.968;2022-09-13T08:19:06;1.93;;;1.83;;
18042;SDS011;9146;48.074;11.968;2022-09-13T08:21:36;1.80;;;1.70;;
18042;SDS011;9146;48.074;11.968;2022-09-13T08:24:04;3.00;;;2.50;;
18042;SDS011;9146;48.074;11.968;2022-09-13T08:26:34;2.77;;;2.43;;
18042;SDS011;9146;48.074;11.968;2022-09-13T08:29:04;8.33;;;2.20;;
18042;SDS011;9146;48.074;11.968;2022-09-13T08:31:31;3.70;;;2.20;;
18042;SDS011;9146;48.074;11.968;2022-09-13T08:33:59;3.30;;;2.67;;
18042;SDS011;9146;48.074;11.968;2022-09-13T08:36:26;1.80;;;1.70;;
18042;SDS011;9146;48.074;11.968;2022-09-13T08:38:54;1.90;;;1.80;;
18042;SDS011;9146;48.074;11.968;2022-09-13T08:44:27;1.93;;;1.83;;
18042;SDS011;9146;48.074;11.968;2022-09-13T08:46:56;1.83;;;1.73;;
18042;SDS011;9146;48.074;11.968;2022-09-13T08:49:30;3.23;;;1.90;;
18042;SDS011;9146;48.074;11.968;2022-09-13T08:52:02;2.30;;;2.10;;
18042;SDS011;9146;48.074;11.968;2022-09-13T08:54:40;2.27;;;2.10;;
18042;SDS011;9146;48.074;11.968;2022-09-13T08:57:08;1.90;;;1.80;;
18042;SDS011;9146;48.074;11.968;2022-09-13T08:59:46;1.70;;;1.60;;
18042;SDS011;9146;48.074;11.968;2022-09-13T09:02:21;1.43;;;1.43;;
18042;SDS011;9146;48.074;11.968;2022-09-13T09:05:01;2.10;;;1.90;;
18042;SDS011;9146;48.074;11.968;2022-09-13T09:07:31;1.70;;;1.60;;
18042;SDS011;9146;48.074;11.968;2022-09-13T09:10:03;1.70;;;1.60;;
18042;SDS011;9146;48.074;11.968;2022-09-13T09:12:35;1.90;;;1.80;;
18042;SDS011;9146;48.074;11.968;2022-09-13T09:15:08;2.07;;;1.97;;
18042;SDS011;9146;48.074;11.968;2022-09-13T09:17:43;2.50;;;2.30;;
18042;SDS011;9146;48.074;11.968;2022-09-13T09:20:20;2.80;;;2.57;;
18042;SDS011;9146;48.074;11.968;2022-09-13T09:22:50;2.53;;;2.33;;
18042;SDS011;9146;48.074;11.968;2022-09-13T09:25:19;3.90;;;2.30;;
18042;SDS011;9146;48.074;11.968;2022-09-13T09:27:50;2.30;;;2.13;;
18042;SDS011;9146;48.074;11.968;2022-09-13T09:30:19;1.93;;;1.83;;
18042;SDS011;9146;48.074;11.968;2022-09-13T09:32:48;1.90;;;1.80;;
18042;SDS011;9146;48.074;11.968;2022-09-13T09:35:30;2.20;;;1.70;;
18042;SDS011;9146;48.074;11.968;2022-09-13T09:38:23;2.07;;;1.90;;
18042;SDS011;9146;48.074;11.968;2022-09-13T09:40:58;1.80;;;1.70;;
18042;SDS011;9146;48.074;11.968;2022-09-13T09:43:30;1.73;;;1.63;;
18042;SDS011;9146;48.074;11.968;2022-09-13T09:46:02;2.90;;;2.00;;
18042;SDS011;9146;48.074;11.968;2022-09-13T09:48:34;1.80;;;1.70;;
18042;SDS011;9146;48.074;11.968;2022-09-13T09:51:06;8.83;;;1.57;;
18042;SDS011;9146;48.074;11.968;2022-09-13T09:53:36;1.53;;;1.43;;
18042;SDS011;9146;48.074;11.968;2022-09-13T09:56:12;1.73;;;1.60;;
18042;SDS011;9146;48.074;11.968;2022-09-13T09:58:46;1.53;;;1.47;;
18042;SDS011;9146;48.074;11.968;2022-09-13T10:01:18;2.07;;;1.60;;
18042;SDS011;9146;48.074;11.968;2022-09-13T10:03:51;1.80;;;1.70;;
18042;SDS011;9146;48.074;11.968;2022-09-13T10:06:24;2.03;;;1.60;;
18042;SDS011;9146;48.074;11.968;2022-09-13T10:08:54;1.80;;;1.70;;
18042;SDS011;9146;48.074;11.968;2022-09-13T10:11:36;3.47;;;1.80;;
18042;SDS011;9146;48.074;11.968;2022-09-13T10:14:05;1.30;;;1.20;;
18042;SDS011;9146;48.074;11.968;2022-09-13T10:16:33;1.83;;;1.70;;
18042;SDS011;9146;48.074;11.968;2022-09-13T10:21:58;1.63;;;1.53;;
18042;SDS011;9146;48.074;11.968;2022-09-13T10:24:27;1.77;;;1.63;;
18042;SDS011;9146;48.074;11.968;2022-09-13T10:26:54;1.30;;;1.30;;
18042;SDS011;9146;48.074;11.968;2022-09-13T10:29:22;3.13;;;2.00;;
18042;SDS011;9146;48.074;11.968;2022-09-13T10:31:53;2.47;;;1.80;;
18042;SDS011;9146;48.074;11.968;2022-09-13T10:34:23;1.77;;;1.63;;
18042;SDS011;9146;48.074;11.968;2022-09-13T10:36:54;5.03;;;1.97;;
18042;SDS011;9146;48.074;11.968;2022-09-13T10:39:24;2.07;;;1.50;;
18042;SDS011;9146;48.074;11.968;2022-09-13T10:41:53;1.40;;;1.40;;
18042;SDS011;9146;48.074;11.968;2022-09-13T10:44:27;3.63;;;1.63;;
18042;SDS011;9146;48.074;11.968;2022-09-13T10:47:00;4.73;;;1.63;;
18042;SDS011;9146;48.074;11.968;2022-09-13T10:49:43;1.70;;;1.60;;
18042;SDS011;9146;48.074;11.968;2022-09-13T10:52:28;1.93;;;1.40;;
18042;SDS011;9146;48.074;11.968;2022-09-13T10:58:00;4.80;;;2.17;;
18042;SDS011;9146;48.074;11.968;2022-09-13T11:04:07;1.70;;;1.60;;
18042;SDS011;9146;48.074;11.968;2022-09-13T11:07:02;1.40;;;1.30;;
18042;SDS011;9146;48.074;11.968;2022-09-13T11:09:40;1.50;;;1.40;;
18042;SDS011;9146;48.074;11.968;2022-09-13T11:12:13;7.20;;;1.47;;
18042;SDS011;9146;48.074;11.968;2022-09-13T11:14:48;1.70;;;1.60;;
18042;SDS011;9146;48.074;11.968;2022-09-13T11:17:25;2.50;;;1.83;;
18042;SDS011;9146;48.074;11.968;2022-09-13T11:20:13;1.50;;;1.40;;
18042;SDS011;9146;48.074;11.968;2022-09-13T11:22:58;1.60;;;1.50;;
18042;SDS011;9146;48.074;11.968;2022-09-13T11:25:39;1.60;;;1.50;;
18042;SDS011;9146;48.074;11.968;2022-09-13T11:28:21;2.33;;;1.73;;
18042;SDS011;9146;48.074;11.968;2022-09-13T11:31:00;1.90;;;1.70;;
18042;SDS011;9146;48.074;11.968;2022-09-13T11:33:40;1.60;;;1.50;;
18042;SDS011;9146;48.074;11.968;2022-09-13T11:36:22;1.70;;;1.60;;
18042;SDS011;9146;48.074;11.968;2022-09-13T11:39:01;1.20;;;1.10;;
18042;SDS011;9146;48.074;11.968;2022-09-13T11:41:40;3.20;;;1.50;;
18042;SDS011;9146;48.074;11.968;2022-09-13T11:44:27;1.60;;;1.50;;
18042;SDS011;9146;48.074;11.968;2022-09-13T11:47:12;4.10;;;1.50;;
18042;SDS011;9146;48.074;11.968;2022-09-13T11:49:49;2.13;;;1.93;;
18042;SDS011;9146;48.074;11.968;2022-09-13T11:52:36;1.40;;;1.40;;
18042;SDS011;9146;48.074;11.968;2022-09-13T11:55:14;1.67;;;1.43;;
18042;SDS011;9146;48.074;11.968;2022-09-13T11:57:44;1.70;;;1.60;;
18042;SDS011;9146;48.074;11.968;2022-09-13T12:00:18;1.63;;;1.40;;
18042;SDS011;9146;48.074;11.968;2022-09-13T12:02:49;1.30;;;1.20;;
18042;SDS011;9146;48.074;11.968;2022-09-13T12:05:23;2.50;;;1.50;;
18042;SDS011;9146;48.074;11.968;2022-09-13T12:07:57;1.40;;;1.30;;
18042;SDS011;9146;48.074;11.968;2022-09-13T12:10:29;1.60;;;1.30;;
18042;SDS011;9146;48.074;11.968;2022-09-13T12:13:02;1.47;;;1.37;;
18042;SDS011;9146;48.074;11.968;2022-09-13T12:15:37;1.80;;;1.57;;
18042;SDS011;9146;48.074;11.968;2022-09-13T12:18:07;1.40;;;1.30;;
18042;SDS011;9146;48.074;11.968;2022-09-13T12:20:39;1.60;;;1.50;;
18042;SDS011;9146;48.074;11.968;2022-09-13T12:23:13;2.47;;;1.23;;
18042;SDS011;9146;48.074;11.968;2022-09-13T12:25:46;1.23;;;1.13;;
18042;SDS011;9146;48.074;11.968;2022-09-13T12:28:18;1.97;;;1.30;;
18042;SDS011;9146;48.074;11.968;2022-09-13T12:30:51;1.47;;;1.37;;
18042;SDS011;9146;48.074;11.968;2022-09-13T12:33:21;3.40;;;1.50;;
18042;SDS011;9146;48.074;11.968;2022-09-13T12:35:52;1.20;;;1.20;;
18042;SDS011;9146;48.074;11.968;2022-09-13T12:38:39;7.20;;;1.57;;
18042;SDS011;9146;48.074;11.968;2022-09-13T12:41:30;1.03;;;1.03;;
18042;SDS011;9146;48.074;11.968;2022-09-13T12:44:11;1.10;;;1.10;;
18042;SDS011;9146;48.074;11.968;2022-09-13T12:47:01;1.10;;;1.10;;
18042;SDS011;9146;48.074;11.968;2022-09-13T12:49:43;1.63;;;1.53;;
18042;SDS011;9146;48.074;11.968;2022-09-13T12:52:29;8.40;;;1.70;;
18042;SDS011;9146;48.074;11.968;2022-09-13T12:55:20;1.43;;;1.37;;
18042;SDS011;9146;48.074;11.968;2022-09-13T12:58:02;1.13;;;1.10;;
18042;SDS011;9146;48.074;11.968;2022-09-13T13:00:42;1.53;;;1.43;;
18042;SDS011;9146;48.074;11.968;2022-09-13T13:03:15;3.57;;;1.53;;
18042;SDS011;9146;48.074;11.968;2022-09-13T13:05:45;1.50;;;1.40;;
18042;SDS011;9146;48.074;11.968;2022-09-13T13:08:25;2.50;;;1.23;;
18042;SDS011;9146;48.074;11.968;2022-09-13T13:11:03;2.60;;;1.20;;
18042;SDS011;9146;48.074;11.968;2022-09-13T13:13:33;1.73;;;1.23;;
18042;SDS011;9146;48.074;11.968;2022-09-13T13:16:03;1.13;;;1.03;;
18042;SDS011;9146;48.074;11.968;2022-09-13T13:18:46;1.20;;;1.00;;
18042;SDS011;9146;48.074;11.968;2022-09-13T13:33:25;1.77;;;1.67;;
18042;SDS011;9146;48.074;11.968;2022-09-13T13:35:56;1.80;;;1.10;;
18042;SDS011;9146;48.074;11.968;2022-09-13T13:38:46;2.73;;;1.37;;
18042;SDS011;9146;48.074;11.968;2022-09-13T13:47:52;4.57;;;1.07;;
18042;SDS011;9146;48.074;11.968;2022-09-13T13:50:34;1.30;;;1.20;;
18042;SDS011;9146;48.074;11.968;2022-09-13T13:53:13;1.20;;;1.10;;
18042;SDS011;9146;48.074;11.968;2022-09-13T13:55:47;1.53;;;1.20;;
18042;SDS011;9146;48.074;11.968;2022-09-13T13:58:32;1.20;;;1.10;;
18042;SDS011;9146;48.074;11.968;2022-09-13T14:01:13;1.40;;;1.30;;
18042;SDS011;9146;48.074;11.968;2022-09-13T14:06:48;1.50;;;1.40;;
18042;SDS011;9146;48.074;11.968;2022-09-13T14:09:27;1.27;;;1.10;;
18042;SDS011;9146;48.074;11.968;2022-09-13T14:12:06;1.30;;;1.20;;
18042;SDS011;9146;48.074;11.968;2022-09-13T14:14:54;1.23;;;1.13;;
18042;SDS011;9146;48.074;11.968;2022-09-13T14:20:26;1.20;;;1.20;;
18042;SDS011;9146;48.074;11.968;2022-09-13T14:25:41;4.87;;;1.23;;
18042;SDS011;9146;48.074;11.968;2022-09-13T14:28:11;2.50;;;1.43;;
18042;SDS011;9146;48.074;11.968;2022-09-13T14:30:42;1.17;;;1.07;;
18042;SDS011;9146;48.074;11.968;2022-09-13T14:33:17;1.30;;;1.20;;
18042;SDS011;9146;48.074;11.968;2022-09-13T14:35:56;1.37;;;1.27;;
18042;SDS011;9146;48.074;11.968;2022-09-13T14:38:25;2.60;;;1.40;;
18042;SDS011;9146;48.074;11.968;2022-09-13T14:40:58;1.27;;;1.20;;
18042;SDS011;9146;48.074;11.968;2022-09-13T14:43:27;3.57;;;1.30;;
18042;SDS011;9146;48.074;11.968;2022-09-13T14:45:56;4.50;;;1.57;;
18042;SDS011;9146;48.074;11.968;2022-09-13T14:48:29;1.20;;;1.10;;
18042;SDS011;9146;48.074;11.968;2022-09-13T14:51:01;1.50;;;1.20;;
18042;SDS011;9146;48.074;11.968;2022-09-13T14:53:33;4.20;;;1.53;;
18042;SDS011;9146;48.074;11.968;2022-09-13T14:56:02;1.60;;;1.50;;
18042;SDS011;9146;48.074;11.968;2022-09-13T14:58:33;1.40;;;1.30;;
18042;SDS011;9146;48.074;11.968;2022-09-13T15:01:09;3.47;;;1.73;;
18042;SDS011;9146;48.074;11.968;2022-09-13T15:03:41;2.30;;;1.60;;
18042;SDS011;9146;48.074;11.968;2022-09-13T15:06:18;1.90;;;1.63;;
18042;SDS011;9146;48.074;11.968;2022-09-13T15:08:48;1.30;;;1.20;;
18042;SDS011;9146;48.074;11.968;2022-09-13T15:11:16;2.00;;;1.67;;
18042;SDS011;9146;48.074;11.968;2022-09-13T15:14:00;1.40;;;1.30;;
18042;SDS011;9146;48.074;11.968;2022-09-13T15:16:47;1.90;;;1.27;;
18042;SDS011;9146;48.074;11.968;2022-09-13T15:19:25;1.53;;;1.27;;
18042;SDS011;9146;48.074;11.968;2022-09-13T15:22:03;1.40;;;1.30;;
18042;SDS011;9146;48.074;11.968;2022-09-13T15:24:36;2.00;;;1.90;;
18042;SDS011;9146;48.074;11.968;2022-09-13T15:27:15;1.83;;;1.60;;
18042;SDS011;9146;48.074;11.968;2022-09-13T15:29:48;4.53;;;1.67;;
18042;SDS011;9146;48.074;11.968;2022-09-13T15:32:20;4.23;;;1.30;;
18042;SDS011;9146;48.074;11.968;2022-09-13T15:34:49;1.50;;;1.40;;
18042;SDS011;9146;48.074;11.968;2022-09-13T15:37:17;1.57;;;1.27;;
18042;SDS011;9146;48.074;11.968;2022-09-13T15:40:04;1.33;;;1.23;;
18042;SDS011;9146;48.074;11.968;2022-09-13T15:42:46;2.70;;;1.17;;
18042;SDS011;9146;48.074;11.968;2022-09-13T15:45:14;2.30;;;1.13;;
18042;SDS011;9146;48.074;11.968;2022-09-13T15:47:43;1.50;;;1.40;;
18042;SDS011;9146;48.074;11.968;2022-09-13T15:50:19;1.20;;;1.10;;
18042;SDS011;9146;48.074;11.968;2022-09-13T15:52:48;2.37;;;1.20;;
18042;SDS011;9146;48.074;11.968;2022-09-13T15:55:14;1.27;;;1.20;;
18042;SDS011;9146;48.074;11.968;2022-09-13T15:57:42;2.90;;;1.40;;